sensor_id;sensor_type;location;lat;lon;timestamp;pressure;altitude;pressure_sealevel;temperature;humidity
59272;BME280;45043;51.068;7.026;2023-03-21T00:02:25;100598.81;;;6.97;52.39
59272;BME280;45043;51.068;7.026;2023-03-21T00:05:26;100594.84;;;6.93;52.27
59272;BME280;45043;51.068;7.026;2023-03-21T00:08:26;100597.34;;;6.94;52.50
59272;BME280;45043;51.068;7.026;2023-03-21T00:11:27;100583.47;;;6.92;52.49
59272;BME280;45043;51.068;7.026;2023-03-21T00:14:27;100589.72;;;6.99;52.44
59272;BME280;45043;51.068;7.026;2023-03-21T00:17:30;100586.56;;;7.04;52.08
59272;BME280;45043;51.068;7.026;2023-03-21T00:20:32;100577.16;;;7.01;52.26
59272;BME280;45043;51.068;7.026;2023-03-21T00:23:36;100575.72;;;6.91;52.58
59272;BME280;45043;51.068;7.026;2023-03-21T00:26:37;100569.13;;;6.78;52.86
59272;BME280;45043;51.068;7.026;2023-03-21T00:29:37;100574.06;;;6.81;52.76
59272;BME280;45043;51.068;7.026;2023-03-21T00:32:38;100560.84;;;6.81;52.75
59272;BME280;45043;51.068;7.026;2023-03-21T00:35:39;100570.41;;;6.82;52.89
59272;BME280;45043;51.068;7.026;2023-03-21T00:38:42;100560.56;;;6.84;52.77
59272;BME280;45043;51.068;7.026;2023-03-21T00:41:42;100567.47;;;6.85;52.78
59272;BME280;45043;51.068;7.026;2023-03-21T00:44:43;100560.56;;;6.84;52.80
59272;BME280;45043;51.068;7.026;2023-03-21T00:47:44;100549.28;;;6.82;52.78
59272;BME280;45043;51.068;7.026;2023-03-21T00:50:45;100557.88;;;6.93;53.41
59272;BME280;45043;51.068;7.026;2023-03-21T00:53:48;100558.38;;;6.96;52.71
59272;BME280;45043;51.068;7.026;2023-03-21T00:56:48;100543.34;;;6.97;52.55
59272;BME280;45043;51.068;7.026;2023-03-21T00:59:49;100539.72;;;6.98;52.38
59272;BME280;45043;51.068;7.026;2023-03-21T01:02:49;100546.47;;;7.00;52.50
59272;BME280;45043;51.068;7.026;2023-03-21T01:05:56;100542.38;;;6.98;52.61
59272;BME280;45043;51.068;7.026;2023-03-21T01:09:11;100533.59;;;6.97;52.58
59272;BME280;45043;51.068;7.026;2023-03-21T01:12:12;100540.56;;;6.98;52.60
59272;BME280;45043;51.068;7.026;2023-03-21T01:15:13;100532.44;;;7.00;52.74
59272;BME280;45043;51.068;7.026;2023-03-21T01:18:14;100533.94;;;7.02;52.65
59272;BME280;45043;51.068;7.026;2023-03-21T01:21:15;100525.66;;;6.97;52.84
59272;BME280;45043;51.068;7.026;2023-03-21T01:24:16;100525.53;;;6.99;52.69
59272;BME280;45043;51.068;7.026;2023-03-21T01:27:16;100527.81;;;7.02;52.72
59272;BME280;45043;51.068;7.026;2023-03-21T01:30:17;100517.41;;;7.00;52.33
59272;BME280;45043;51.068;7.026;2023-03-21T01:33:19;100527.31;;;7.06;52.65
59272;BME280;45043;51.068;7.026;2023-03-21T01:36:23;100522.50;;;7.10;52.50
59272;BME280;45043;51.068;7.026;2023-03-21T01:39:25;100535.53;;;7.11;52.38
59272;BME280;45043;51.068;7.026;2023-03-21T01:42:26;100520.84;;;7.09;52.48
59272;BME280;45043;51.068;7.026;2023-03-21T01:49:27;100527.44;;;7.13;52.20
59272;BME280;45043;51.068;7.026;2023-03-21T01:52:40;100517.16;;;7.18;52.61
59272;BME280;45043;51.068;7.026;2023-03-21T01:55:45;100516.97;;;7.20;52.43
59272;BME280;45043;51.068;7.026;2023-03-21T01:59:20;100515.53;;;7.17;52.01
59272;BME280;45043;51.068;7.026;2023-03-21T02:02:43;100507.47;;;7.10;52.62
59272;BME280;45043;51.068;7.026;2023-03-21T02:09:13;100497.91;;;7.09;52.59
59272;BME280;45043;51.068;7.026;2023-03-21T02:12:15;100502.88;;;7.04;53.13
59272;BME280;45043;51.068;7.026;2023-03-21T02:15:19;100499.72;;;7.09;53.06
59272;BME280;45043;51.068;7.026;2023-03-21T02:18:39;100491.44;;;7.12;52.91
59272;BME280;45043;51.068;7.026;2023-03-21T02:22:16;100488.31;;;7.08;53.02
59272;BME280;45043;51.068;7.026;2023-03-21T02:25:45;100478.59;;;7.09;53.03
59272;BME280;45043;51.068;7.026;2023-03-21T02:29:17;100476.28;;;7.06;53.60
59272;BME280;45043;51.068;7.026;2023-03-21T02:36:03;100461.16;;;6.92;53.60
59272;BME280;45043;51.068;7.026;2023-03-21T02:45:59;100463.72;;;7.08;53.65
59272;BME280;45043;51.068;7.026;2023-03-21T02:49:24;100461.41;;;7.05;53.73
59272;BME280;45043;51.068;7.026;2023-03-21T02:52:28;100468.66;;;7.11;53.69
59272;BME280;45043;51.068;7.026;2023-03-21T02:55:31;100461.56;;;7.11;53.45
59272;BME280;45043;51.068;7.026;2023-03-21T02:58:37;100460.03;;;7.17;53.26
59272;BME280;45043;51.068;7.026;2023-03-21T03:01:39;100462.84;;;7.16;53.49
59272;BME280;45043;51.068;7.026;2023-03-21T03:04:40;100455.09;;;7.14;53.53
59272;BME280;45043;51.068;7.026;2023-03-21T03:14:46;100451.91;;;6.96;53.59
59272;BME280;45043;51.068;7.026;2023-03-21T03:17:56;100449.78;;;6.91;53.93
59272;BME280;45043;51.068;7.026;2023-03-21T03:21:17;100451.28;;;6.85;54.13
59272;BME280;45043;51.068;7.026;2023-03-21T03:24:26;100447.50;;;6.80;54.73
59272;BME280;45043;51.068;7.026;2023-03-21T03:27:35;100448.97;;;6.91;54.02
59272;BME280;45043;51.068;7.026;2023-03-21T03:30:38;100440.72;;;6.85;54.22
59272;BME280;45043;51.068;7.026;2023-03-21T03:33:43;100438.41;;;6.82;54.25
59272;BME280;45043;51.068;7.026;2023-03-21T03:36:49;100429.84;;;6.80;54.84
59272;BME280;45043;51.068;7.026;2023-03-21T03:40:04;100425.25;;;6.74;54.42
59272;BME280;45043;51.068;7.026;2023-03-21T03:43:10;100421.63;;;6.67;54.65
59272;BME280;45043;51.068;7.026;2023-03-21T03:46:18;100422.66;;;6.66;54.85
59272;BME280;45043;51.068;7.026;2023-03-21T03:49:24;100417.06;;;6.61;54.84
59272;BME280;45043;51.068;7.026;2023-03-21T03:52:28;100416.06;;;6.62;54.91
59272;BME280;45043;51.068;7.026;2023-03-21T03:55:37;100419.38;;;6.56;55.14
59272;BME280;45043;51.068;7.026;2023-03-21T03:58:44;100420.09;;;6.50;55.35
59272;BME280;45043;51.068;7.026;2023-03-21T04:01:44;100411.50;;;6.48;55.39
59272;BME280;45043;51.068;7.026;2023-03-21T04:04:45;100414.13;;;6.48;55.32
59272;BME280;45043;51.068;7.026;2023-03-21T04:07:47;100412.34;;;6.40;55.60
59272;BME280;45043;51.068;7.026;2023-03-21T04:10:51;100413.84;;;6.34;55.84
59272;BME280;45043;51.068;7.026;2023-03-21T04:13:52;100397.72;;;6.29;55.81
59272;BME280;45043;51.068;7.026;2023-03-21T04:16:55;100399.19;;;6.32;55.84
59272;BME280;45043;51.068;7.026;2023-03-21T04:19:56;100399.03;;;6.33;55.60
59272;BME280;45043;51.068;7.026;2023-03-21T04:22:56;100402.31;;;6.35;55.96
59272;BME280;45043;51.068;7.026;2023-03-21T04:25:57;100400.50;;;6.36;56.22
59272;BME280;45043;51.068;7.026;2023-03-21T04:29:08;100402.97;;;6.37;56.19
59272;BME280;45043;51.068;7.026;2023-03-21T04:32:28;100390.28;;;6.33;56.36
59272;BME280;45043;51.068;7.026;2023-03-21T04:35:40;100393.41;;;6.36;56.20
59272;BME280;45043;51.068;7.026;2023-03-21T04:38:43;100394.22;;;6.37;56.41
59272;BME280;45043;51.068;7.026;2023-03-21T04:41:49;100391.44;;;6.38;56.36
59272;BME280;45043;51.068;7.026;2023-03-21T04:44:50;100389.28;;;6.34;56.71
59272;BME280;45043;51.068;7.026;2023-03-21T04:47:50;100388.13;;;6.36;56.71
59272;BME280;45043;51.068;7.026;2023-03-21T04:50:51;100391.09;;;6.33;56.41
59272;BME280;45043;51.068;7.026;2023-03-21T04:53:51;100384.34;;;6.31;56.67
59272;BME280;45043;51.068;7.026;2023-03-21T04:56:57;100389.81;;;6.29;56.73
59272;BME280;45043;51.068;7.026;2023-03-21T05:00:00;100383.72;;;6.29;56.70
59272;BME280;45043;51.068;7.026;2023-03-21T05:03:01;100367.22;;;6.27;56.80
59272;BME280;45043;51.068;7.026;2023-03-21T05:06:02;100384.81;;;6.34;56.63
59272;BME280;45043;51.068;7.026;2023-03-21T05:09:03;100392.25;;;6.39;56.67
59272;BME280;45043;51.068;7.026;2023-03-21T05:12:08;100396.34;;;6.42;56.47
59272;BME280;45043;51.068;7.026;2023-03-21T05:15:09;100396.00;;;6.45;56.32
59272;BME280;45043;51.068;7.026;2023-03-21T05:18:11;100393.38;;;6.45;56.62
59272;BME280;45043;51.068;7.026;2023-03-21T05:21:21;100390.38;;;6.48;56.80
59272;BME280;45043;51.068;7.026;2023-03-21T05:24:23;100382.66;;;6.46;56.70
59272;BME280;45043;51.068;7.026;2023-03-21T05:27:24;100383.63;;;6.45;56.82
59272;BME280;45043;51.068;7.026;2023-03-21T05:30:39;100381.81;;;6.46;56.77
59272;BME280;45043;51.068;7.026;2023-03-21T05:33:44;100381.34;;;6.42;56.81
59272;BME280;45043;51.068;7.026;2023-03-21T05:36:48;100377.72;;;6.43;56.80
59272;BME280;45043;51.068;7.026;2023-03-21T05:39:50;100381.19;;;6.44;57.02
59272;BME280;45043;51.068;7.026;2023-03-21T05:42:57;100380.13;;;6.61;57.47
59272;BME280;45043;51.068;7.026;2023-03-21T05:45:59;100381.13;;;6.91;56.81
59272;BME280;45043;51.068;7.026;2023-03-21T05:49:03;100383.38;;;7.02;56.83
59272;BME280;45043;51.068;7.026;2023-03-21T05:52:04;100391.03;;;7.12;56.42
59272;BME280;45043;51.068;7.026;2023-03-21T05:55:05;100395.91;;;7.23;56.19
59272;BME280;45043;51.068;7.026;2023-03-21T05:58:06;100396.50;;;7.33;55.60
59272;BME280;45043;51.068;7.026;2023-03-21T06:01:06;100399.38;;;7.47;55.54
59272;BME280;45043;51.068;7.026;2023-03-21T06:04:09;100400.31;;;7.54;55.47
59272;BME280;45043;51.068;7.026;2023-03-21T06:07:10;100394.50;;;7.58;55.01
59272;BME280;45043;51.068;7.026;2023-03-21T06:10:13;100382.56;;;7.63;54.85
59272;BME280;45043;51.068;7.026;2023-03-21T06:13:17;100379.44;;;7.59;55.12
59272;BME280;45043;51.068;7.026;2023-03-21T06:16:18;100377.03;;;7.49;56.08
59272;BME280;45043;51.068;7.026;2023-03-21T06:19:19;100389.69;;;7.77;55.67
59272;BME280;45043;51.068;7.026;2023-03-21T06:22:34;100397.75;;;7.83;55.24
59272;BME280;45043;51.068;7.026;2023-03-21T06:25:35;100394.19;;;7.91;55.29
59272;BME280;45043;51.068;7.026;2023-03-21T06:28:36;100392.63;;;7.97;54.59
59272;BME280;45043;51.068;7.026;2023-03-21T06:31:37;100393.81;;;7.79;54.95
59272;BME280;45043;51.068;7.026;2023-03-21T06:34:39;100389.88;;;7.75;55.16
59272;BME280;45043;51.068;7.026;2023-03-21T06:37:40;100395.53;;;7.72;55.24
59272;BME280;45043;51.068;7.026;2023-03-21T06:40:45;100389.69;;;7.77;54.97
59272;BME280;45043;51.068;7.026;2023-03-21T06:43:46;100397.78;;;7.75;55.12
59272;BME280;45043;51.068;7.026;2023-03-21T06:46:48;100393.81;;;7.79;55.04
59272;BME280;45043;51.068;7.026;2023-03-21T06:49:52;100402.22;;;7.98;54.97
59272;BME280;45043;51.068;7.026;2023-03-21T06:52:53;100398.69;;;8.20;54.68
59272;BME280;45043;51.068;7.026;2023-03-21T06:55:53;100378.81;;;8.24;53.80
59272;BME280;45043;51.068;7.026;2023-03-21T06:58:55;100403.25;;;8.26;54.18
59272;BME280;45043;51.068;7.026;2023-03-21T07:02:14;100400.00;;;8.24;54.17
59272;BME280;45043;51.068;7.026;2023-03-21T07:05:21;100409.91;;;8.37;54.14
59272;BME280;45043;51.068;7.026;2023-03-21T07:08:21;100406.00;;;8.48;53.82
59272;BME280;45043;51.068;7.026;2023-03-21T07:11:22;100406.97;;;8.62;53.45
59272;BME280;45043;51.068;7.026;2023-03-21T07:14:23;100415.38;;;8.65;53.22
59272;BME280;45043;51.068;7.026;2023-03-21T07:17:25;100423.59;;;8.70;53.11
59272;BME280;45043;51.068;7.026;2023-03-21T07:20:25;100425.22;;;8.71;53.00
59272;BME280;45043;51.068;7.026;2023-03-21T07:23:27;100429.97;;;8.76;52.90
59272;BME280;45043;51.068;7.026;2023-03-21T07:26:28;100423.31;;;8.80;52.80
59272;BME280;45043;51.068;7.026;2023-03-21T07:29:28;100429.22;;;8.82;52.81
59272;BME280;45043;51.068;7.026;2023-03-21T07:32:31;100428.13;;;8.91;53.00
59272;BME280;45043;51.068;7.026;2023-03-21T07:35:33;100431.84;;;8.97;52.96
59272;BME280;45043;51.068;7.026;2023-03-21T07:38:35;100430.84;;;8.98;53.01
59272;BME280;45043;51.068;7.026;2023-03-21T07:41:35;100431.75;;;8.90;53.60
59272;BME280;45043;51.068;7.026;2023-03-21T07:45:06;100433.34;;;8.85;53.97
59272;BME280;45043;51.068;7.026;2023-03-21T07:48:08;100429.22;;;8.82;54.37
59272;BME280;45043;51.068;7.026;2023-03-21T07:51:09;100429.13;;;8.75;55.09
59272;BME280;45043;51.068;7.026;2023-03-21T07:54:10;100426.78;;;8.66;55.21
59272;BME280;45043;51.068;7.026;2023-03-21T07:57:10;100421.78;;;8.56;55.72
59272;BME280;45043;51.068;7.026;2023-03-21T08:00:11;100420.59;;;8.44;56.07
59272;BME280;45043;51.068;7.026;2023-03-21T08:03:16;100429.16;;;8.31;56.60
59272;BME280;45043;51.068;7.026;2023-03-21T08:06:16;100421.50;;;8.21;57.24
59272;BME280;45043;51.068;7.026;2023-03-21T08:09:17;100420.09;;;7.96;58.03
59272;BME280;45043;51.068;7.026;2023-03-21T08:12:17;100423.78;;;7.72;58.66
59272;BME280;45043;51.068;7.026;2023-03-21T08:15:18;100427.84;;;7.59;59.52
59272;BME280;45043;51.068;7.026;2023-03-21T08:18:19;100416.13;;;7.62;59.65
59272;BME280;45043;51.068;7.026;2023-03-21T08:21:19;100424.31;;;7.67;59.76
59272;BME280;45043;51.068;7.026;2023-03-21T08:24:20;100424.66;;;7.64;60.33
59272;BME280;45043;51.068;7.026;2023-03-21T08:27:20;100418.47;;;7.57;60.18
59272;BME280;45043;51.068;7.026;2023-03-21T08:30:23;100416.69;;;7.49;60.89
59272;BME280;45043;51.068;7.026;2023-03-21T08:33:25;100423.53;;;7.44;61.42
59272;BME280;45043;51.068;7.026;2023-03-21T08:36:26;100412.59;;;7.47;61.48
59272;BME280;45043;51.068;7.026;2023-03-21T08:39:27;100408.00;;;7.41;61.80
59272;BME280;45043;51.068;7.026;2023-03-21T08:42:27;100417.91;;;7.47;61.91
59272;BME280;45043;51.068;7.026;2023-03-21T08:45:28;100420.81;;;7.29;62.64
59272;BME280;45043;51.068;7.026;2023-03-21T08:48:28;100416.06;;;7.24;63.18
59272;BME280;45043;51.068;7.026;2023-03-21T08:51:29;100421.03;;;7.19;63.42
59272;BME280;45043;51.068;7.026;2023-03-21T08:54:31;100422.13;;;7.10;63.76
59272;BME280;45043;51.068;7.026;2023-03-21T08:57:31;100417.91;;;6.93;64.40
59272;BME280;45043;51.068;7.026;2023-03-21T09:00:32;100416.22;;;7.00;64.91
59272;BME280;45043;51.068;7.026;2023-03-21T09:03:33;100416.00;;;7.09;64.89
59272;BME280;45043;51.068;7.026;2023-03-21T09:06:33;100408.19;;;7.16;64.71
59272;BME280;45043;51.068;7.026;2023-03-21T09:09:34;100420.81;;;7.29;64.71
59272;BME280;45043;51.068;7.026;2023-03-21T09:12:34;100410.13;;;7.22;64.65
59272;BME280;45043;51.068;7.026;2023-03-21T09:15:35;100412.50;;;7.17;65.06
59272;BME280;45043;51.068;7.026;2023-03-21T09:18:36;100407.66;;;6.98;65.48
59272;BME280;45043;51.068;7.026;2023-03-21T09:21:47;100396.16;;;6.91;66.04
59272;BME280;45043;51.068;7.026;2023-03-21T09:24:48;100407.88;;;6.88;66.26
59272;BME280;45043;51.068;7.026;2023-03-21T09:27:49;100401.72;;;6.96;66.77
59272;BME280;45043;51.068;7.026;2023-03-21T09:30:50;100391.75;;;7.06;66.61
59272;BME280;45043;51.068;7.026;2023-03-21T09:33:51;100398.97;;;7.12;66.60
59272;BME280;45043;51.068;7.026;2023-03-21T09:36:52;100401.03;;;7.25;66.38
59272;BME280;45043;51.068;7.026;2023-03-21T09:39:56;100399.88;;;7.27;66.16
59272;BME280;45043;51.068;7.026;2023-03-21T09:46:44;100407.91;;;7.57;65.82
59272;BME280;45043;51.068;7.026;2023-03-21T09:49:53;100409.09;;;7.69;65.79
59272;BME280;45043;51.068;7.026;2023-03-21T09:52:59;100401.38;;;7.82;65.68
59272;BME280;45043;51.068;7.026;2023-03-21T09:56:00;100416.25;;;7.83;65.42
59272;BME280;45043;51.068;7.026;2023-03-21T09:59:02;100405.28;;;7.87;65.25
59272;BME280;45043;51.068;7.026;2023-03-21T10:05:34;100405.50;;;8.00;64.47
59272;BME280;45043;51.068;7.026;2023-03-21T10:08:40;100396.66;;;7.93;64.19
59272;BME280;45043;51.068;7.026;2023-03-21T10:11:48;100392.28;;;8.00;64.68
59272;BME280;45043;51.068;7.026;2023-03-21T10:14:52;100388.00;;;8.14;63.65
59272;BME280;45043;51.068;7.026;2023-03-21T10:18:02;100382.72;;;8.14;63.61
59272;BME280;45043;51.068;7.026;2023-03-21T10:21:04;100384.25;;;8.08;63.37
59272;BME280;45043;51.068;7.026;2023-03-21T10:24:05;100384.25;;;8.08;63.77
59272;BME280;45043;51.068;7.026;2023-03-21T10:27:05;100384.91;;;8.10;62.91
59272;BME280;45043;51.068;7.026;2023-03-21T10:30:07;100378.59;;;7.96;63.80
59272;BME280;45043;51.068;7.026;2023-03-21T10:33:17;100379.59;;;7.80;64.00
59272;BME280;45043;51.068;7.026;2023-03-21T10:36:22;100370.16;;;7.63;64.52
59272;BME280;45043;51.068;7.026;2023-03-21T10:39:38;100365.59;;;7.57;64.80
59272;BME280;45043;51.068;7.026;2023-03-21T10:42:40;100364.25;;;7.61;65.51
59272;BME280;45043;51.068;7.026;2023-03-21T10:45:45;100361.59;;;7.61;65.24
59272;BME280;45043;51.068;7.026;2023-03-21T10:48:50;100352.75;;;7.69;64.97
59272;BME280;45043;51.068;7.026;2023-03-21T10:51:54;100347.38;;;7.62;65.31
59272;BME280;45043;51.068;7.026;2023-03-21T10:55:07;100342.91;;;7.77;64.78
59272;BME280;45043;51.068;7.026;2023-03-21T10:58:17;100348.13;;;7.86;64.83
59272;BME280;45043;51.068;7.026;2023-03-21T11:01:28;100330.88;;;7.90;64.39
59272;BME280;45043;51.068;7.026;2023-03-21T11:04:32;100332.34;;;7.77;64.68
59272;BME280;45043;51.068;7.026;2023-03-21T11:07:34;100303.59;;;7.74;64.35
59272;BME280;45043;51.068;7.026;2023-03-21T11:10:50;100311.63;;;7.51;64.65
59272;BME280;45043;51.068;7.026;2023-03-21T11:14:00;100312.53;;;7.44;65.21
59272;BME280;45043;51.068;7.026;2023-03-21T11:20:19;100302.50;;;7.54;64.60
59272;BME280;45043;51.068;7.026;2023-03-21T11:23:21;100289.47;;;7.52;64.45
59272;BME280;45043;51.068;7.026;2023-03-21T11:26:36;100285.44;;;7.42;64.43
59272;BME280;45043;51.068;7.026;2023-03-21T11:29:38;100283.09;;;7.47;64.49
59272;BME280;45043;51.068;7.026;2023-03-21T11:32:41;100297.50;;;7.59;64.36
59272;BME280;45043;51.068;7.026;2023-03-21T11:35:41;100291.13;;;7.68;64.23
59272;BME280;45043;51.068;7.026;2023-03-21T11:38:42;100280.47;;;7.76;64.14
59272;BME280;45043;51.068;7.026;2023-03-21T11:41:46;100285.56;;;7.78;64.46
59272;BME280;45043;51.068;7.026;2023-03-21T11:44:48;100284.63;;;7.86;63.55
59272;BME280;45043;51.068;7.026;2023-03-21T11:47:58;100283.63;;;7.87;63.52
59272;BME280;45043;51.068;7.026;2023-03-21T11:58:29;100287.19;;;7.64;63.17
59272;BME280;45043;51.068;7.026;2023-03-21T12:04:54;100281.00;;;7.57;63.62
59272;BME280;45043;51.068;7.026;2023-03-21T12:11:36;100273.34;;;7.47;64.15
59272;BME280;45043;51.068;7.026;2023-03-21T12:14:58;100261.94;;;7.47;63.90
59272;BME280;45043;51.068;7.026;2023-03-21T12:18:38;100263.94;;;7.45;64.01
59272;BME280;45043;51.068;7.026;2023-03-21T12:24:56;100261.19;;;7.38;64.22
59272;BME280;45043;51.068;7.026;2023-03-21T12:32:24;100263.91;;;7.30;64.85
59272;BME280;45043;51.068;7.026;2023-03-21T12:39:03;100250.31;;;7.18;65.08
59272;BME280;45043;51.068;7.026;2023-03-21T12:45:35;100268.75;;;7.26;65.25
59272;BME280;45043;51.068;7.026;2023-03-21T12:51:45;100252.28;;;7.39;65.38
59272;BME280;45043;51.068;7.026;2023-03-21T12:55:24;100249.72;;;7.46;65.44
59272;BME280;45043;51.068;7.026;2023-03-21T12:58:19;100252.75;;;7.43;65.51
59272;BME280;45043;51.068;7.026;2023-03-21T13:01:23;100235.69;;;7.45;66.16
59272;BME280;45043;51.068;7.026;2023-03-21T13:04:39;100232.88;;;7.47;65.72
59272;BME280;45043;51.068;7.026;2023-03-21T13:07:46;100233.03;;;7.60;65.40
59272;BME280;45043;51.068;7.026;2023-03-21T13:10:48;100235.59;;;7.68;65.63
59272;BME280;45043;51.068;7.026;2023-03-21T13:14:05;100218.91;;;7.68;65.00
59272;BME280;45043;51.068;7.026;2023-03-21T13:17:31;100217.38;;;7.58;65.04
59272;BME280;45043;51.068;7.026;2023-03-21T13:20:48;100212.63;;;7.54;64.58
59272;BME280;45043;51.068;7.026;2023-03-21T13:24:14;100210.91;;;7.61;64.47
59272;BME280;45043;51.068;7.026;2023-03-21T13:30:32;100207.06;;;7.64;64.39
59272;BME280;45043;51.068;7.026;2023-03-21T13:33:32;100199.88;;;7.43;64.41
59272;BME280;45043;51.068;7.026;2023-03-21T13:36:34;100194.03;;;7.47;64.66
59272;BME280;45043;51.068;7.026;2023-03-21T13:39:42;100168.69;;;7.53;64.58
59272;BME280;45043;51.068;7.026;2023-03-21T13:42:50;100159.22;;;7.58;64.31
59272;BME280;45043;51.068;7.026;2023-03-21T13:45:52;100174.50;;;7.63;64.23
59272;BME280;45043;51.068;7.026;2023-03-21T13:48:56;100174.50;;;7.78;63.45
59272;BME280;45043;51.068;7.026;2023-03-21T13:52:00;100168.81;;;7.96;63.43
59272;BME280;45043;51.068;7.026;2023-03-21T13:55:02;100162.31;;;7.98;63.45
59272;BME280;45043;51.068;7.026;2023-03-21T13:58:30;100151.88;;;8.12;62.79
59272;BME280;45043;51.068;7.026;2023-03-21T14:01:40;100156.31;;;8.26;62.39
59272;BME280;45043;51.068;7.026;2023-03-21T14:04:42;100150.06;;;8.34;62.28
59272;BME280;45043;51.068;7.026;2023-03-21T14:07:46;100154.78;;;8.38;62.04
59272;BME280;45043;51.068;7.026;2023-03-21T14:10:56;100133.81;;;8.37;61.59
59272;BME280;45043;51.068;7.026;2023-03-21T14:14:00;100132.03;;;8.22;61.25
59272;BME280;45043;51.068;7.026;2023-03-21T14:17:14;100125.91;;;8.22;60.98
59272;BME280;45043;51.068;7.026;2023-03-21T14:20:20;100131.03;;;8.23;60.98
59272;BME280;45043;51.068;7.026;2023-03-21T14:23:22;100135.34;;;8.24;61.25
59272;BME280;45043;51.068;7.026;2023-03-21T14:26:23;100125.06;;;8.36;60.64
59272;BME280;45043;51.068;7.026;2023-03-21T14:29:29;100115.09;;;8.38;60.31
59272;BME280;45043;51.068;7.026;2023-03-21T14:32:30;100107.47;;;8.50;60.26
59272;BME280;45043;51.068;7.026;2023-03-21T14:35:32;100118.16;;;8.63;59.78
59272;BME280;45043;51.068;7.026;2023-03-21T14:38:36;100105.63;;;8.78;59.73
59272;BME280;45043;51.068;7.026;2023-03-21T14:42:07;100122.47;;;8.71;59.17
59272;BME280;45043;51.068;7.026;2023-03-21T14:45:20;100124.97;;;8.72;59.07
59272;BME280;45043;51.068;7.026;2023-03-21T14:48:28;100130.72;;;8.83;59.01
59272;BME280;45043;51.068;7.026;2023-03-21T14:51:29;100127.34;;;8.95;58.87
59272;BME280;45043;51.068;7.026;2023-03-21T14:54:31;100118.03;;;9.06;58.59
59272;BME280;45043;51.068;7.026;2023-03-21T14:57:32;100104.84;;;9.19;58.35
59272;BME280;45043;51.068;7.026;2023-03-21T15:00:33;100100.22;;;9.35;57.79
59272;BME280;45043;51.068;7.026;2023-03-21T15:03:35;100110.34;;;9.59;57.28
59272;BME280;45043;51.068;7.026;2023-03-21T15:06:57;100111.84;;;9.82;56.56
59272;BME280;45043;51.068;7.026;2023-03-21T15:10:06;100105.16;;;9.92;56.04
59272;BME280;45043;51.068;7.026;2023-03-21T15:13:18;100099.69;;;10.20;55.17
59272;BME280;45043;51.068;7.026;2023-03-21T15:16:20;100089.25;;;10.79;54.12
59272;BME280;45043;51.068;7.026;2023-03-21T15:19:26;100080.13;;;11.71;52.16
59272;BME280;45043;51.068;7.026;2023-03-21T15:22:34;100069.97;;;12.25;50.16
59272;BME280;45043;51.068;7.026;2023-03-21T15:25:35;100051.31;;;12.25;50.27
59272;BME280;45043;51.068;7.026;2023-03-21T15:28:36;100054.25;;;12.85;48.65
59272;BME280;45043;51.068;7.026;2023-03-21T15:31:38;100065.31;;;13.55;46.74
59272;BME280;45043;51.068;7.026;2023-03-21T15:34:39;100031.38;;;13.44;46.22
59272;BME280;45043;51.068;7.026;2023-03-21T15:37:40;100052.63;;;12.84;47.48
59272;BME280;45043;51.068;7.026;2023-03-21T15:40:40;100049.56;;;12.37;48.45
59272;BME280;45043;51.068;7.026;2023-03-21T15:43:41;100048.16;;;12.09;49.22
59272;BME280;45043;51.068;7.026;2023-03-21T15:49:52;100041.75;;;15.97;41.85
59272;BME280;45043;51.068;7.026;2023-03-21T15:52:54;100038.91;;;17.37;38.67
59272;BME280;45043;51.068;7.026;2023-03-21T15:55:58;100042.84;;;18.11;37.31
59272;BME280;45043;51.068;7.026;2023-03-21T15:59:03;100045.94;;;18.72;35.73
59272;BME280;45043;51.068;7.026;2023-03-21T16:02:14;100041.41;;;18.83;35.33
59272;BME280;45043;51.068;7.026;2023-03-21T16:05:31;100043.41;;;19.08;34.33
59272;BME280;45043;51.068;7.026;2023-03-21T16:08:37;100039.78;;;19.45;33.70
59272;BME280;45043;51.068;7.026;2023-03-21T16:11:47;100045.63;;;19.26;34.10
59272;BME280;45043;51.068;7.026;2023-03-21T16:14:47;100039.47;;;18.31;35.30
59272;BME280;45043;51.068;7.026;2023-03-21T16:18:06;100036.56;;;16.41;38.00
59272;BME280;45043;51.068;7.026;2023-03-21T16:21:10;100039.91;;;15.52;39.78
59272;BME280;45043;51.068;7.026;2023-03-21T16:24:11;100032.44;;;14.74;40.96
59272;BME280;45043;51.068;7.026;2023-03-21T16:27:12;100035.50;;;14.00;42.45
59272;BME280;45043;51.068;7.026;2023-03-21T16:30:17;100043.88;;;13.32;43.76
59272;BME280;45043;51.068;7.026;2023-03-21T16:33:18;100018.81;;;12.59;44.83
59272;BME280;45043;51.068;7.026;2023-03-21T16:36:25;100035.88;;;12.33;45.84
59272;BME280;45043;51.068;7.026;2023-03-21T16:39:26;100031.84;;;12.67;45.52
59272;BME280;45043;51.068;7.026;2023-03-21T16:42:26;100026.84;;;13.14;44.89
59272;BME280;45043;51.068;7.026;2023-03-21T16:45:27;100029.66;;;13.50;44.31
59272;BME280;45043;51.068;7.026;2023-03-21T16:48:29;100028.31;;;13.29;44.70
59272;BME280;45043;51.068;7.026;2023-03-21T16:51:34;100023.94;;;12.79;45.67
59272;BME280;45043;51.068;7.026;2023-03-21T16:54:35;100019.50;;;12.30;46.82
59272;BME280;45043;51.068;7.026;2023-03-21T16:57:36;100031.69;;;11.94;47.38
59272;BME280;45043;51.068;7.026;2023-03-21T17:00:36;100032.09;;;11.59;48.15
59272;BME280;45043;51.068;7.026;2023-03-21T17:03:37;100037.00;;;11.17;49.12
59272;BME280;45043;51.068;7.026;2023-03-21T17:06:44;100046.09;;;10.90;49.51
59272;BME280;45043;51.068;7.026;2023-03-21T17:09:46;100043.72;;;10.68;50.64
59272;BME280;45043;51.068;7.026;2023-03-21T17:12:47;100053.91;;;10.58;50.94
59272;BME280;45043;51.068;7.026;2023-03-21T17:15:48;100065.16;;;10.47;51.35
59272;BME280;45043;51.068;7.026;2023-03-21T17:18:49;100065.78;;;10.36;51.63
59272;BME280;45043;51.068;7.026;2023-03-21T17:21:50;100070.28;;;10.29;52.19
59272;BME280;45043;51.068;7.026;2023-03-21T17:24:50;100066.78;;;10.15;52.11
59272;BME280;45043;51.068;7.026;2023-03-21T17:27:50;100073.72;;;10.03;52.86
59272;BME280;45043;51.068;7.026;2023-03-21T17:30:53;100068.59;;;9.88;52.77
59272;BME280;45043;51.068;7.026;2023-03-21T17:33:53;100079.81;;;9.90;53.14